Time,TemperatureF,DewpointF,PressureIn,WindDirection,WindDirectionDegrees,WindSpeedMPH,WindSpeedGustMPH,Humidity,HourlyPrecipIn,Conditions,Clouds,dailyrainin,SoftwareType,DateUTC
2017-05-22 00:04:00,56.9,40.0,30.25,West,269,0.0,9.0,53,0.00,,,0.00,weatherlink.com 1.10,2017-05-22 04:04:00,
2017-05-22 00:19:00,56.9,39.0,30.25,WSW,251,2.0,8.0,52,0.00,,,0.00,weatherlink.com 1.10,2017-05-22 04:19:00,
2017-05-22 00:34:00,56.5,39.0,30.26,West,264,3.0,9.0,52,0.00,,,0.00,weatherlink.com 1.10,2017-05-22 04:34:00,
2017-05-22 00:49:00,56.4,39.0,30.26,WNW,291,2.0,10.0,53,0.00,,,0.00,weatherlink.com 1.10,2017-05-22 04:49:00,
2017-05-22 01:04:00,56.5,38.0,30.26,WNW,284,1.0,9.0,51,0.00,,,0.00,weatherlink.com 1.10,2017-05-22 05:04:00,
2017-05-22 01:19:00,56.4,38.0,30.25,West,275,1.0,8.0,51,0.00,,,0.00,weatherlink.com 1.10,2017-05-22 05:19:00,
2017-05-22 01:34:00,56.3,37.0,30.25,West,263,6.0,11.0,49,0.00,,,0.00,weatherlink.com 1.10,2017-05-22 05:34:00,
2017-05-22 01:49:00,56.3,37.0,30.25,WNW,288,3.0,12.0,49,0.00,,,0.00,weatherlink.com 1.10,2017-05-22 05:49:00,
2017-05-22 02:04:00,56.4,37.0,30.24,West,274,3.0,9.0,49,0.00,,,0.00,weatherlink.com 1.10,2017-05-22 06:04:00,
2017-05-22 02:19:00,56.4,38.0,30.23,West,266,1.0,7.0,50,0.00,,,0.00,weatherlink.com 1.10,2017-05-22 06:19:00,
2017-05-22 02:34:00,56.1,38.0,30.23,West,275,1.0,8.0,51,0.00,,,0.00,weatherlink.com 1.10,2017-05-22 06:34:00,
2017-05-22 02:49:00,55.6,38.0,30.23,West,275,6.0,9.0,51,0.00,,,0.00,weatherlink.com 1.10,2017-05-22 06:49:00,
2017-05-22 03:04:00,55.5,37.0,30.22,West,279,2.0,7.0,51,0.00,,,0.00,weatherlink.com 1.10,2017-05-22 07:04:00,
2017-05-22 03:19:00,55.4,37.0,30.22,West,280,7.0,10.0,51,0.00,,,0.00,weatherlink.com 1.10,2017-05-22 07:19:00,
2017-05-22 03:34:00,55.4,37.0,30.22,West,276,0.0,7.0,51,0.00,,,0.00,weatherlink.com 1.10,2017-05-22 07:34:00,
2017-05-22 03:49:00,55.4,37.0,30.22,West,272,8.0,9.0,50,0.00,,,0.00,weatherlink.com 1.10,2017-05-22 07:49:00,
2017-05-22 04:04:00,55.0,37.0,30.24,NW,322,1.0,11.0,51,0.00,,,0.00,weatherlink.com 1.10,2017-05-22 08:04:00,
2017-05-22 04:19:00,55.0,37.0,30.24,WNW,301,4.0,9.0,52,0.00,,,0.00,weatherlink.com 1.10,2017-05-22 08:19:00,
2017-05-22 04:34:00,54.9,38.0,30.23,WNW,294,2.0,8.0,53,0.00,,,0.00,weatherlink.com 1.10,2017-05-22 08:34:00,
2017-05-22 04:49:00,54.5,38.0,30.22,West,274,1.0,10.0,54,0.00,,,0.00,weatherlink.com 1.10,2017-05-22 08:49:00,
2017-05-22 05:04:00,54.3,38.0,30.22,West,278,4.0,7.0,55,0.00,,,0.00,weatherlink.com 1.10,2017-05-22 09:04:00,
2017-05-22 05:19:00,54.1,39.0,30.22,West,280,1.0,5.0,56,0.00,,,0.00,weatherlink.com 1.10,2017-05-22 09:19:00,
2017-05-22 05:34:00,53.9,40.0,30.23,WNW,283,6.0,8.0,60,0.00,,,0.00,weatherlink.com 1.10,2017-05-22 09:34:00,
2017-05-22 05:49:00,53.6,40.0,30.23,West,271,2.0,11.0,61,0.00,,,0.00,weatherlink.com 1.10,2017-05-22 09:49:00,
2017-05-22 06:04:00,53.6,41.0,30.22,West,274,3.0,9.0,62,0.00,,,0.00,weatherlink.com 1.10,2017-05-22 10:04:00,
2017-05-22 06:19:00,53.7,42.0,30.21,West,271,1.0,7.0,66,0.00,,,0.00,weatherlink.com 1.10,2017-05-22 10:19:00,
2017-05-22 06:34:00,53.5,43.0,30.22,West,269,1.0,3.0,68,0.00,,,0.00,weatherlink.com 1.10,2017-05-22 10:34:00,
2017-05-22 06:50:00,53.0,43.0,30.23,West,272,7.0,7.0,70,0.01,,,0.01,weatherlink.com 1.10,2017-05-22 10:50:00,
2017-05-22 07:05:00,52.6,44.0,30.23,West,271,0.0,4.0,72,0.02,,,0.02,weatherlink.com 1.10,2017-05-22 11:05:00,
2017-05-22 07:20:00,52.7,45.0,30.24,West,271,0.0,1.0,75,0.03,,,0.03,weatherlink.com 1.10,2017-05-22 11:20:00,
2017-05-22 07:35:00,52.4,45.0,30.23,West,263,3.0,8.0,75,0.03,,,0.03,weatherlink.com 1.10,2017-05-22 11:35:00,
2017-05-22 07:50:00,52.1,45.0,30.23,West,265,2.0,2.0,78,0.03,,,0.04,weatherlink.com 1.10,2017-05-22 11:50:00,
2017-05-22 08:05:00,51.9,45.0,30.22,West,264,0.0,3.0,78,0.02,,,0.04,weatherlink.com 1.10,2017-05-22 12:05:00,
2017-05-22 08:20:00,52.0,46.0,30.22,West,261,2.0,6.0,80,0.01,,,0.04,weatherlink.com 1.10,2017-05-22 12:20:00,
2017-05-22 08:35:00,52.7,46.0,30.22,West,259,2.0,6.0,79,0.01,,,0.04,weatherlink.com 1.10,2017-05-22 12:35:00,
2017-05-22 08:50:00,53.2,47.0,30.22,WSW,253,2.0,7.0,78,0.00,,,0.04,weatherlink.com 1.10,2017-05-22 12:50:00,
2017-05-22 09:05:00,53.9,47.0,30.21,WSW,249,0.0,8.0,77,0.00,,,0.04,weatherlink.com 1.10,2017-05-22 13:05:00,
2017-05-22 09:20:00,54.3,46.0,30.21,SW,232,0.0,8.0,73,0.00,,,0.04,weatherlink.com 1.10,2017-05-22 13:20:00,
2017-05-22 09:35:00,54.6,46.0,30.21,SW,225,3.0,5.0,73,0.00,,,0.04,weatherlink.com 1.10,2017-05-22 13:35:00,
2017-05-22 09:50:00,54.7,43.0,30.22,WSW,241,4.0,9.0,66,0.00,,,0.04,weatherlink.com 1.10,2017-05-22 13:50:00,
2017-05-22 10:05:00,55.1,43.0,30.21,SW,234,5.0,7.0,64,0.00,,,0.04,weatherlink.com 1.10,2017-05-22 14:05:00,
2017-05-22 10:20:00,54.7,44.0,30.22,SW,229,3.0,7.0,67,0.00,,,0.04,weatherlink.com 1.10,2017-05-22 14:20:00,
2017-05-22 10:35:00,54.0,44.0,30.22,WSW,256,0.0,8.0,69,0.00,,,0.04,weatherlink.com 1.10,2017-05-22 14:35:00,
2017-05-22 10:50:00,53.0,42.0,30.21,West,275,0.0,9.0,67,0.00,,,0.04,weatherlink.com 1.10,2017-05-22 14:50:00,
2017-05-22 11:05:00,52.8,44.0,30.21,WSW,254,0.0,7.0,71,0.00,,,0.04,weatherlink.com 1.10,2017-05-22 15:05:00,
2017-05-22 11:20:00,52.3,43.0,30.21,WSW,256,0.0,7.0,70,0.01,,,0.05,weatherlink.com 1.10,2017-05-22 15:20:00,
2017-05-22 11:35:00,52.2,44.0,30.20,WSW,249,2.0,5.0,73,0.02,,,0.06,weatherlink.com 1.10,2017-05-22 15:35:00,
2017-05-22 11:50:00,52.2,45.0,30.19,SE,138,1.0,5.0,75,0.02,,,0.06,weatherlink.com 1.10,2017-05-22 15:50:00,
2017-05-22 12:05:00,52.4,45.0,30.19,ESE,123,2.0,7.0,75,0.02,,,0.06,weatherlink.com 1.10,2017-05-22 16:05:00,
2017-05-22 12:20:00,52.5,45.0,30.18,SE,127,2.0,5.0,76,0.01,,,0.06,weatherlink.com 1.10,2017-05-22 16:20:00,
2017-05-22 12:35:00,52.4,45.0,30.18,SSE,153,4.0,8.0,77,0.00,,,0.06,weatherlink.com 1.10,2017-05-22 16:35:00,
2017-05-22 12:50:00,52.1,46.0,30.18,SE,141,4.0,9.0,80,0.00,,,0.06,weatherlink.com 1.10,2017-05-22 16:50:00,
2017-05-22 13:05:00,52.0,46.0,30.17,SSE,150,3.0,10.0,81,0.00,,,0.06,weatherlink.com 1.10,2017-05-22 17:05:00,
2017-05-22 13:20:00,52.2,47.0,30.17,SSE,165,5.0,10.0,81,0.00,,,0.06,weatherlink.com 1.10,2017-05-22 17:20:00,
2017-05-22 13:35:00,51.9,47.0,30.17,SE,142,1.0,8.0,84,0.01,,,0.07,weatherlink.com 1.10,2017-05-22 17:35:00,
2017-05-22 13:50:00,52.6,49.0,30.16,SSE,152,2.0,5.0,86,0.01,,,0.07,weatherlink.com 1.10,2017-05-22 17:50:00,
2017-05-22 14:05:00,52.6,48.0,30.14,SSE,153,3.0,9.0,83,0.01,,,0.07,weatherlink.com 1.10,2017-05-22 18:05:00,
2017-05-22 14:20:00,52.7,47.0,30.14,SSE,153,3.0,8.0,82,0.01,,,0.07,weatherlink.com 1.10,2017-05-22 18:20:00,
2017-05-22 14:35:00,52.9,47.0,30.13,SSE,150,2.0,6.0,80,0.00,,,0.07,weatherlink.com 1.10,2017-05-22 18:35:00,
2017-05-22 14:50:00,53.1,47.0,30.13,SSE,147,2.0,9.0,79,0.00,,,0.07,weatherlink.com 1.10,2017-05-22 18:50:00,
2017-05-22 15:05:00,53.9,48.0,30.12,SSE,148,0.0,6.0,80,0.00,,,0.07,weatherlink.com 1.10,2017-05-22 19:05:00,
2017-05-22 15:20:00,54.3,48.0,30.12,SE,146,0.0,7.0,80,0.00,,,0.07,weatherlink.com 1.10,2017-05-22 19:20:00,
2017-05-22 15:35:00,54.5,48.0,30.11,SSE,157,0.0,6.0,80,0.00,,,0.07,weatherlink.com 1.10,2017-05-22 19:35:00,
2017-05-22 15:50:00,54.9,49.0,30.10,SSE,160,1.0,8.0,80,0.00,,,0.07,weatherlink.com 1.10,2017-05-22 19:50:00,
2017-05-22 16:05:00,55.5,49.0,30.10,SSE,160,1.0,9.0,78,0.00,,,0.07,weatherlink.com 1.10,2017-05-22 20:05:00,
2017-05-22 16:21:00,55.8,49.0,30.09,SSE,165,7.0,7.0,77,0.00,,,0.07,weatherlink.com 1.10,2017-05-22 20:21:00,
2017-05-22 16:36:00,55.9,48.0,30.09,SW,222,2.0,7.0,76,0.00,,,0.07,weatherlink.com 1.10,2017-05-22 20:36:00,
2017-05-22 16:51:00,55.8,48.0,30.08,West,266,2.0,9.0,76,0.00,,,0.07,weatherlink.com 1.10,2017-05-22 20:51:00,
2017-05-22 17:06:00,55.6,49.0,30.08,SW,233,4.0,11.0,77,0.00,,,0.07,weatherlink.com 1.10,2017-05-22 21:06:00,
2017-05-22 17:21:00,54.6,49.0,30.07,WSW,250,1.0,11.0,80,0.00,,,0.07,weatherlink.com 1.10,2017-05-22 21:21:00,
2017-05-22 17:36:00,54.0,48.0,30.07,West,279,0.0,7.0,81,0.00,,,0.07,weatherlink.com 1.10,2017-05-22 21:36:00,
2017-05-22 17:51:00,53.9,49.0,30.07,SW,236,4.0,8.0,82,0.00,,,0.07,weatherlink.com 1.10,2017-05-22 21:51:00,
2017-05-22 18:06:00,53.4,48.0,30.06,SW,236,1.0,6.0,83,0.00,,,0.07,weatherlink.com 1.10,2017-05-22 22:06:00,
2017-05-22 18:21:00,53.3,49.0,30.06,SW,236,0.0,4.0,85,0.00,,,0.07,weatherlink.com 1.10,2017-05-22 22:21:00,
2017-05-22 18:36:00,53.3,49.0,30.05,SW,234,0.0,6.0,85,0.00,,,0.07,weatherlink.com 1.10,2017-05-22 22:36:00,
2017-05-22 18:51:00,53.4,49.0,30.06,SW,231,2.0,5.0,86,0.00,,,0.07,weatherlink.com 1.10,2017-05-22 22:51:00,
2017-05-22 19:06:00,53.2,50.0,30.05,SW,230,1.0,3.0,87,0.00,,,0.07,weatherlink.com 1.10,2017-05-22 23:06:00,
2017-05-22 19:21:00,53.0,50.0,30.05,SW,231,0.0,4.0,88,0.00,,,0.07,weatherlink.com 1.10,2017-05-22 23:21:00,
2017-05-22 19:36:00,53.3,50.0,30.04,SW,228,0.0,3.0,89,0.01,,,0.08,weatherlink.com 1.10,2017-05-22 23:36:00,
2017-05-22 19:51:00,53.6,51.0,30.04,SW,228,0.0,2.0,90,0.01,,,0.08,weatherlink.com 1.10,2017-05-22 23:51:00,
2017-05-22 20:06:00,53.7,51.0,30.04,SW,227,2.0,2.0,90,0.01,,,0.08,weatherlink.com 1.10,2017-05-23 00:06:00,
2017-05-22 20:21:00,53.7,51.0,30.03,SW,227,1.0,3.0,91,0.01,,,0.08,weatherlink.com 1.10,2017-05-23 00:21:00,
2017-05-22 20:36:00,53.9,51.0,30.03,SW,227,0.0,2.0,91,0.00,,,0.08,weatherlink.com 1.10,2017-05-23 00:36:00,
2017-05-22 20:51:00,54.0,52.0,30.03,SW,226,0.0,3.0,91,0.00,,,0.08,weatherlink.com 1.10,2017-05-23 00:51:00,
2017-05-22 21:06:00,54.2,52.0,30.03,SW,225,0.0,3.0,91,0.00,,,0.08,weatherlink.com 1.10,2017-05-23 01:06:00,